createdAt,value
2023-02-18T00:01:02.645Z,55.80
2023-02-18T00:03:29.937Z,56.17
2023-02-18T00:05:56.942Z,55.78
2023-02-18T00:08:24.061Z,57.58
2023-02-18T00:10:50.900Z,56.60
2023-02-18T00:13:17.600Z,57.50
2023-02-18T00:15:44.295Z,65.07
2023-02-18T00:18:11.253Z,57.13
2023-02-18T00:20:39.766Z,59.47
2023-02-18T00:23:06.526Z,46.03
2023-02-18T00:25:33.348Z,52.15
2023-02-18T00:28:02.102Z,38.53
2023-02-18T00:30:29.000Z,59.70
2023-02-18T00:32:55.921Z,54.67
2023-02-18T00:35:22.698Z,55.70
2023-02-18T00:37:51.964Z,54.95
2023-02-18T00:40:19.718Z,41.90
2023-02-18T00:42:46.497Z,57.65
2023-02-18T00:45:13.281Z,60.33
2023-02-18T00:47:40.073Z,59.28
2023-02-18T00:50:07.823Z,49.85
2023-02-18T00:52:34.561Z,48.47
2023-02-18T00:55:01.310Z,51.67
2023-02-18T00:57:28.060Z,48.95
2023-02-18T00:59:54.767Z,46.95
2023-02-18T01:02:21.697Z,52.28
2023-02-18T01:04:48.656Z,53.87
2023-02-18T01:07:15.505Z,48.45
2023-02-18T01:09:42.232Z,55.28
2023-02-18T01:12:08.947Z,57.65
2023-02-18T01:14:35.746Z,62.00
2023-02-18T01:17:02.568Z,48.93
2023-02-18T01:19:29.255Z,58.78
2023-02-18T01:21:55.965Z,59.80
2023-02-18T01:24:22.750Z,55.88
2023-02-18T01:26:49.518Z,62.17
2023-02-18T01:29:16.370Z,68.10
2023-02-18T01:31:43.336Z,70.28
2023-02-18T01:34:10.118Z,61.17
2023-02-18T01:36:37.026Z,72.10
2023-02-18T01:39:06.243Z,70.40
2023-02-18T01:41:33.225Z,73.00
2023-02-18T01:44:21.149Z,73.75
2023-02-18T01:46:49.146Z,65.63
2023-02-18T01:49:30.669Z,59.72
2023-02-18T01:52:03.906Z,77.53
2023-02-18T01:54:39.755Z,62.87
2023-02-18T01:57:10.584Z,72.03
2023-02-18T01:59:45.151Z,75.78
2023-02-18T02:02:17.779Z,72.55
2023-02-18T02:04:44.810Z,67.53
2023-02-18T02:07:11.989Z,70.07
2023-02-18T02:09:40.623Z,73.18
2023-02-18T02:12:20.135Z,77.22
2023-02-18T02:15:17.715Z,77.63
2023-02-18T02:18:01.346Z,76.30
2023-02-18T02:20:36.960Z,75.60
2023-02-18T02:23:15.845Z,75.80
2023-02-18T02:26:03.638Z,77.15
2023-02-18T02:28:33.329Z,77.88
2023-02-18T02:31:24.787Z,78.50
2023-02-18T02:34:05.471Z,82.00
2023-02-18T02:36:53.667Z,75.63
2023-02-18T02:39:40.300Z,70.25
2023-02-18T02:42:09.999Z,75.80
2023-02-18T02:44:43.342Z,83.88
2023-02-18T02:47:20.670Z,78.60
2023-02-18T02:50:17.394Z,70.25
2023-02-18T02:52:52.033Z,67.32
2023-02-18T02:55:19.004Z,66.82
2023-02-18T02:57:54.454Z,56.28
2023-02-18T03:00:50.693Z,59.17
2023-02-18T03:03:27.206Z,53.03
2023-02-18T03:06:26.552Z,46.63
2023-02-18T03:08:56.203Z,35.85
2023-02-18T03:11:23.452Z,25.27
2023-02-18T03:14:13.782Z,22.77
2023-02-18T03:16:59.819Z,21.40
2023-02-18T03:19:38.412Z,17.60
2023-02-18T03:22:19.323Z,12.48
2023-02-18T03:24:51.773Z,13.88
2023-02-18T03:27:30.504Z,17.60
2023-02-18T03:30:10.848Z,14.82
2023-02-18T03:32:38.215Z,11.80
2023-02-18T03:35:16.406Z,12.32
2023-02-18T03:37:48.741Z,9.88
2023-02-18T03:40:17.144Z,12.10
2023-02-18T03:42:44.003Z,11.73
2023-02-18T03:45:11.047Z,10.60
2023-02-18T03:47:38.231Z,11.85
2023-02-18T03:50:05.503Z,14.02
2023-02-18T03:52:32.222Z,14.23
2023-02-18T03:54:58.930Z,14.30
2023-02-18T03:57:25.711Z,13.88
2023-02-18T03:59:52.406Z,13.63
2023-02-18T04:02:19.147Z,12.82
2023-02-18T04:04:45.847Z,13.00
2023-02-18T04:07:12.730Z,14.27
2023-02-18T04:09:39.622Z,14.35
2023-02-18T04:12:06.642Z,11.23
2023-02-18T04:14:33.441Z,11.85
2023-02-18T04:17:01.253Z,10.20
2023-02-18T04:19:27.938Z,9.55
2023-02-18T04:21:54.625Z,13.32
2023-02-18T04:24:21.431Z,11.52
2023-02-18T04:26:48.162Z,9.80
2023-02-18T04:29:14.913Z,10.90
2023-02-18T04:31:41.777Z,11.75
2023-02-18T04:34:08.547Z,9.05
2023-02-18T04:36:35.334Z,12.77
2023-02-18T04:39:02.270Z,13.68
2023-02-18T04:41:29.025Z,13.33
2023-02-18T04:43:55.849Z,15.10
2023-02-18T04:46:22.727Z,13.13
2023-02-18T04:48:49.622Z,11.65
2023-02-18T04:51:16.539Z,17.17
2023-02-18T04:53:43.334Z,21.67
2023-02-18T04:56:10.418Z,17.88
2023-02-18T04:58:37.272Z,17.30
2023-02-18T05:01:05.216Z,23.25
2023-02-18T05:03:32.133Z,17.25
2023-02-18T05:05:59.422Z,21.10
2023-02-18T05:08:26.355Z,29.85
2023-02-18T05:10:53.057Z,27.67
2023-02-18T05:13:20.187Z,18.05
2023-02-18T05:15:46.952Z,22.27
2023-02-18T05:18:13.626Z,19.07
2023-02-18T05:20:40.503Z,17.20
2023-02-18T05:23:07.179Z,11.93
2023-02-18T05:25:33.949Z,15.38
2023-02-18T05:28:00.710Z,22.30
2023-02-18T05:30:27.540Z,15.10
2023-02-18T05:32:54.775Z,19.20
2023-02-18T05:35:21.536Z,15.80
2023-02-18T05:37:48.259Z,18.48
2023-02-18T05:40:15.080Z,15.35
2023-02-18T05:42:41.940Z,18.17
2023-02-18T05:45:09.296Z,21.55
2023-02-18T05:47:36.068Z,19.25
2023-02-18T05:50:03.603Z,19.50
2023-02-18T05:52:30.478Z,16.25
2023-02-18T05:54:57.496Z,20.73
2023-02-18T05:57:24.350Z,17.95
2023-02-18T05:59:51.111Z,17.90
2023-02-18T06:02:18.137Z,15.20
2023-02-18T06:04:44.945Z,20.45
2023-02-18T06:07:11.675Z,22.37
2023-02-18T06:09:38.425Z,18.40
2023-02-18T06:12:05.410Z,19.55
2023-02-18T06:14:32.541Z,20.45
2023-02-18T06:16:59.249Z,18.40
2023-02-18T06:19:26.041Z,22.70
2023-02-18T06:21:52.814Z,18.88
2023-02-18T06:24:19.545Z,17.08
2023-02-18T06:26:46.466Z,19.58
2023-02-18T06:29:13.247Z,19.15
2023-02-18T06:31:40.079Z,18.07
2023-02-18T06:34:06.910Z,20.05
2023-02-18T06:36:33.713Z,12.55
2023-02-18T06:39:04.243Z,17.92
2023-02-18T06:41:31.110Z,17.90
2023-02-18T06:43:57.797Z,15.67
2023-02-18T06:46:24.559Z,19.17
2023-02-18T06:48:51.794Z,15.55
2023-02-18T06:51:19.509Z,18.73
2023-02-18T06:53:46.332Z,15.02
2023-02-18T06:56:13.142Z,17.47
2023-02-18T06:58:39.885Z,19.45
2023-02-18T07:01:06.954Z,16.05
2023-02-18T07:03:33.697Z,15.10
2023-02-18T07:06:00.484Z,14.73
2023-02-18T07:08:27.394Z,20.07
2023-02-18T07:10:54.162Z,13.80
2023-02-18T07:13:20.875Z,14.80
2023-02-18T07:15:47.598Z,13.88
2023-02-18T07:18:14.413Z,17.77
2023-02-18T07:20:41.163Z,14.90
2023-02-18T07:23:07.887Z,10.73
2023-02-18T07:25:34.671Z,11.80
2023-02-18T07:28:03.550Z,15.18
2023-02-18T07:30:30.324Z,10.35
2023-02-18T07:32:57.502Z,13.30
2023-02-18T07:35:24.340Z,11.10
2023-02-18T07:37:51.363Z,11.90
2023-02-18T07:40:20.715Z,8.82
2023-02-18T07:42:48.127Z,11.52
2023-02-18T07:45:15.597Z,15.43
2023-02-18T07:47:42.660Z,9.25
2023-02-18T07:50:10.140Z,10.63
2023-02-18T07:52:37.058Z,7.22
2023-02-18T07:55:03.913Z,5.97
2023-02-18T07:57:30.617Z,5.30
2023-02-18T07:59:57.401Z,10.70
2023-02-18T08:02:25.483Z,9.52
2023-02-18T08:04:52.372Z,11.43
2023-02-18T08:07:21.747Z,11.70
2023-02-18T08:09:50.672Z,6.13
2023-02-18T08:12:17.627Z,11.85
2023-02-18T08:14:44.415Z,10.65
2023-02-18T08:17:11.243Z,7.38
2023-02-18T08:19:38.061Z,7.78
2023-02-18T08:22:04.820Z,7.70
2023-02-18T08:24:31.565Z,7.38
2023-02-18T08:27:01.175Z,9.50
2023-02-18T08:29:29.053Z,9.68
2023-02-18T08:31:58.038Z,7.55
2023-02-18T08:34:25.353Z,12.27
2023-02-18T08:36:55.058Z,10.40
2023-02-18T08:40:02.617Z,10.88
2023-02-18T08:42:29.366Z,8.30
2023-02-18T08:44:56.100Z,7.15
2023-02-18T08:48:15.916Z,11.53
2023-02-18T08:50:11.979Z,8.35
2023-02-18T08:52:38.861Z,8.00
2023-02-18T08:55:07.394Z,12.93
2023-02-18T08:57:34.211Z,9.88
2023-02-18T09:00:01.093Z,8.17
2023-02-18T09:02:29.284Z,12.07
2023-02-18T09:04:56.184Z,11.27
2023-02-18T09:07:22.881Z,11.77
2023-02-18T09:09:49.561Z,9.00
2023-02-18T09:12:16.368Z,9.57
2023-02-18T09:14:43.087Z,10.75
2023-02-18T09:17:09.833Z,8.63
2023-02-18T09:19:36.537Z,5.93
2023-02-18T09:22:03.272Z,10.00
2023-02-18T09:24:30.030Z,8.93
2023-02-18T09:26:56.717Z,13.68
2023-02-18T09:29:23.574Z,10.02
2023-02-18T09:31:50.436Z,8.52
2023-02-18T09:34:25.482Z,9.15
2023-02-18T09:36:52.384Z,10.23
2023-02-18T09:39:20.181Z,8.75
2023-02-18T09:41:50.110Z,7.10
2023-02-18T09:44:34.444Z,9.80
2023-02-18T09:47:06.621Z,11.38
2023-02-18T09:49:38.324Z,13.67
2023-02-18T09:52:13.187Z,10.27
2023-02-18T09:54:40.316Z,12.35
2023-02-18T09:57:37.111Z,12.50
2023-02-18T10:00:11.352Z,8.55
2023-02-18T10:02:41.585Z,7.70
2023-02-18T10:05:15.294Z,10.15
2023-02-18T10:07:42.886Z,6.43
2023-02-18T10:10:33.352Z,11.07
2023-02-18T10:13:01.451Z,10.60
2023-02-18T10:15:31.658Z,10.23
2023-02-18T10:17:59.738Z,14.30
2023-02-18T10:20:30.008Z,10.27
2023-02-18T10:23:01.265Z,9.68
2023-02-18T10:25:29.665Z,11.88
2023-02-18T10:27:58.755Z,11.63
2023-02-18T10:30:31.853Z,10.50
2023-02-18T10:33:35.582Z,7.82
2023-02-18T10:36:25.155Z,13.20
2023-02-18T10:39:10.342Z,13.85
2023-02-18T10:42:12.153Z,8.53
2023-02-18T10:44:55.262Z,11.77
2023-02-18T10:47:43.169Z,11.38
2023-02-18T10:50:38.061Z,7.97
2023-02-18T10:53:30.674Z,11.23
2023-02-18T10:55:58.943Z,13.20
2023-02-18T10:58:42.975Z,8.52
2023-02-18T11:01:19.216Z,9.02
2023-02-18T11:03:51.555Z,9.45
2023-02-18T11:06:42.710Z,7.10
2023-02-18T11:09:28.820Z,11.07
2023-02-18T11:12:13.493Z,8.73
2023-02-18T11:14:44.605Z,11.40
2023-02-18T11:17:26.650Z,9.38
2023-02-18T11:19:56.159Z,9.10
2023-02-18T11:22:33.150Z,9.67
2023-02-18T11:25:02.869Z,10.77
2023-02-18T11:27:57.611Z,12.10
2023-02-18T11:30:27.031Z,9.93
2023-02-18T11:32:59.358Z,8.45
2023-02-18T11:35:29.879Z,9.40
2023-02-18T11:38:00.698Z,13.13
2023-02-18T11:40:33.318Z,9.40
2023-02-18T11:43:16.010Z,11.82
2023-02-18T11:45:43.068Z,13.90
2023-02-18T11:48:17.348Z,8.13
2023-02-18T11:50:45.442Z,10.65
2023-02-18T11:53:39.366Z,10.35
2023-02-18T11:56:16.732Z,9.45
2023-02-18T11:58:48.385Z,11.95
2023-02-18T12:01:47.689Z,9.20
2023-02-18T12:04:27.372Z,8.48
2023-02-18T12:07:19.622Z,12.02
2023-02-18T12:10:01.791Z,4.97
2023-02-18T12:12:56.448Z,5.57
2023-02-18T12:15:32.026Z,10.33
2023-02-18T12:18:17.011Z,4.13
2023-02-18T12:20:59.606Z,10.15
2023-02-18T12:23:32.066Z,8.43
2023-02-18T12:26:13.926Z,7.13
2023-02-18T12:29:03.011Z,8.37
2023-02-18T12:31:38.545Z,5.25
2023-02-18T12:34:26.732Z,9.18
2023-02-18T12:36:53.441Z,10.38
2023-02-18T12:39:52.667Z,7.32
2023-02-18T12:42:40.016Z,7.77
2023-02-18T12:45:15.989Z,6.55
2023-02-18T12:48:05.486Z,6.32
2023-02-18T12:50:47.489Z,6.22
2023-02-18T12:53:52.992Z,7.20
2023-02-18T12:56:22.834Z,7.50
2023-02-18T12:59:20.701Z,9.52
2023-02-18T13:01:56.382Z,7.97
2023-02-18T13:05:00.718Z,9.77
2023-02-18T13:07:48.964Z,4.75
2023-02-18T13:10:30.147Z,8.57
2023-02-18T13:13:23.376Z,2.92
2023-02-18T13:16:02.728Z,5.35
2023-02-18T13:18:34.631Z,3.20
2023-02-18T13:21:06.138Z,8.02
2023-02-18T13:23:38.540Z,6.00
2023-02-18T13:26:09.888Z,4.00
2023-02-18T13:29:31.072Z,6.40
2023-02-18T13:32:48.576Z,6.55
2023-02-18T13:35:35.032Z,6.78
2023-02-18T13:38:04.971Z,5.10
2023-02-18T13:40:33.087Z,8.38
2023-02-18T13:43:27.888Z,9.93
2023-02-18T13:46:08.104Z,6.10
2023-02-18T13:48:53.141Z,6.88
2023-02-18T13:51:44.635Z,9.67
2023-02-18T13:54:17.280Z,8.18
2023-02-18T13:56:54.881Z,6.43
2023-02-18T13:59:59.926Z,13.93
2023-02-18T14:02:27.190Z,4.30
2023-02-18T14:05:14.236Z,5.10
2023-02-18T14:07:51.861Z,11.60
2023-02-18T14:10:18.629Z,7.65
2023-02-18T14:12:57.709Z,6.70
2023-02-18T14:15:24.781Z,6.35
2023-02-18T14:18:10.284Z,9.30
2023-02-18T14:20:40.134Z,4.88
2023-02-18T14:23:18.921Z,9.85
2023-02-18T14:26:10.684Z,7.63
2023-02-18T14:28:45.365Z,9.13
2023-02-18T14:31:12.414Z,3.90
2023-02-18T14:34:06.367Z,5.63
2023-02-18T14:36:45.052Z,7.63
2023-02-18T14:39:36.004Z,6.25
2023-02-18T14:42:05.563Z,8.05
2023-02-18T14:44:59.215Z,7.03
2023-02-18T14:47:56.116Z,6.15
2023-02-18T14:50:23.448Z,6.35
2023-02-18T14:53:04.438Z,13.90
2023-02-18T14:55:37.129Z,8.65
2023-02-18T14:58:13.166Z,6.60
2023-02-18T15:00:42.204Z,8.13
2023-02-18T15:03:15.035Z,5.82
2023-02-18T15:05:43.096Z,8.82
2023-02-18T15:08:18.869Z,7.45
2023-02-18T15:11:05.904Z,9.30
2023-02-18T15:13:46.339Z,9.85
2023-02-18T15:16:26.793Z,9.85
2023-02-18T15:19:13.529Z,9.75
2023-02-18T15:21:44.348Z,7.10
2023-02-18T15:24:36.698Z,6.27
2023-02-18T15:27:12.363Z,10.32
2023-02-18T15:29:40.113Z,7.40
2023-02-18T15:32:27.378Z,8.73
2023-02-18T15:34:58.508Z,8.15
2023-02-18T15:37:25.529Z,11.93
2023-02-18T15:39:55.778Z,10.32
2023-02-18T15:42:28.414Z,8.68
2023-02-18T15:45:48.402Z,6.28
2023-02-18T15:48:43.701Z,11.18
2023-02-18T15:51:23.445Z,9.23
2023-02-18T15:54:10.951Z,8.13
2023-02-18T15:56:50.461Z,6.53
2023-02-18T15:59:30.429Z,7.75
2023-02-18T16:02:09.033Z,6.88
2023-02-18T16:04:41.852Z,10.33
2023-02-18T16:07:22.508Z,6.57
2023-02-18T16:09:49.616Z,14.93
2023-02-18T16:12:32.046Z,17.77
2023-02-18T16:15:00.171Z,8.70
2023-02-18T16:17:29.465Z,10.77
2023-02-18T16:20:14.752Z,8.65
2023-02-18T16:22:47.569Z,9.95
2023-02-18T16:25:16.120Z,17.23
2023-02-18T16:28:27.768Z,11.88
2023-02-18T16:30:54.521Z,8.77
2023-02-18T16:33:21.187Z,15.23
2023-02-18T16:35:50.339Z,9.35
2023-02-18T16:38:22.792Z,8.63
2023-02-18T16:40:50.141Z,9.82
2023-02-18T16:43:22.176Z,11.10
2023-02-18T16:45:52.010Z,7.60
2023-02-18T16:48:32.954Z,11.10
2023-02-18T16:51:05.564Z,9.85
2023-02-18T16:53:32.479Z,11.68
2023-02-18T16:55:59.258Z,5.80
2023-02-18T16:58:25.930Z,5.70
2023-02-18T17:00:52.852Z,12.45
2023-02-18T17:03:20.853Z,11.75
2023-02-18T17:05:48.750Z,9.52
2023-02-18T17:08:24.116Z,9.23
2023-02-18T17:10:53.235Z,10.63
2023-02-18T17:13:22.806Z,8.88
2023-02-18T17:15:52.511Z,11.32
2023-02-18T17:18:19.707Z,8.50
2023-02-18T17:20:48.384Z,14.93
2023-02-18T17:23:17.354Z,13.95
2023-02-18T17:25:45.389Z,14.38
2023-02-18T17:28:12.264Z,10.68
2023-02-18T17:30:40.570Z,16.00
2023-02-18T17:33:08.495Z,13.47
2023-02-18T17:35:35.230Z,13.43
2023-02-18T17:38:02.023Z,8.60
2023-02-18T17:40:29.383Z,18.15
2023-02-18T17:42:56.554Z,18.13
2023-02-18T17:45:28.845Z,12.83
2023-02-18T17:47:57.087Z,12.05
2023-02-18T17:50:28.174Z,16.33
2023-02-18T17:52:55.536Z,12.38
2023-02-18T17:55:27.763Z,12.68
2023-02-18T17:57:54.957Z,20.27
2023-02-18T18:00:39.707Z,16.98
2023-02-18T18:03:06.573Z,16.05
2023-02-18T18:05:40.037Z,17.52
2023-02-18T18:08:07.786Z,10.25
2023-02-18T18:10:37.695Z,15.63
2023-02-18T18:13:08.723Z,16.58
2023-02-18T18:15:39.966Z,18.23
2023-02-18T18:18:07.739Z,23.10
2023-02-18T18:20:35.415Z,14.30
2023-02-18T18:23:04.441Z,21.17
2023-02-18T18:25:37.649Z,22.60
2023-02-18T18:28:05.719Z,15.00
2023-02-18T18:30:35.572Z,15.25
2023-02-18T18:33:03.214Z,24.38
2023-02-18T18:35:35.785Z,31.57
2023-02-18T18:38:03.695Z,29.23
2023-02-18T18:40:32.411Z,32.67
2023-02-18T18:43:01.326Z,27.90
2023-02-18T18:45:44.486Z,23.13
2023-02-18T18:48:11.267Z,21.90
2023-02-18T18:50:42.026Z,30.58
2023-02-18T18:53:21.439Z,39.40
2023-02-18T18:55:49.408Z,30.85
2023-02-18T18:58:21.023Z,34.65
2023-02-18T19:00:57.978Z,30.23
2023-02-18T19:03:27.299Z,33.40
2023-02-18T19:05:54.627Z,32.10
2023-02-18T19:08:21.923Z,36.88
2023-02-18T19:10:56.839Z,37.58
2023-02-18T19:13:29.159Z,28.20
2023-02-18T19:16:27.508Z,30.77
2023-02-18T19:18:54.319Z,29.92
2023-02-18T19:21:21.074Z,30.55
2023-02-18T19:23:47.938Z,32.65
2023-02-18T19:26:15.957Z,29.57
2023-02-18T19:28:43.820Z,25.30
2023-02-18T19:31:11.274Z,20.83
2023-02-18T19:33:39.502Z,20.67
2023-02-18T19:36:11.878Z,20.65
2023-02-18T19:38:39.611Z,21.80
2023-02-18T19:41:14.757Z,18.88
2023-02-18T19:43:42.845Z,15.02
2023-02-18T19:46:11.076Z,16.20
2023-02-18T19:48:38.001Z,16.02
2023-02-18T19:51:05.423Z,16.00
2023-02-18T19:53:32.455Z,18.15
2023-02-18T19:56:02.525Z,23.23
2023-02-18T19:58:29.593Z,14.82
2023-02-18T20:00:57.046Z,10.13
2023-02-18T20:03:23.954Z,13.63
2023-02-18T20:05:50.670Z,9.80
2023-02-18T20:08:17.422Z,11.48
2023-02-18T20:10:44.163Z,17.52
2023-02-18T20:13:12.047Z,19.88
2023-02-18T20:15:40.285Z,27.57
2023-02-18T20:18:07.326Z,28.98
2023-02-18T20:20:34.045Z,31.67
2023-02-18T20:23:00.947Z,29.67
2023-02-18T20:25:28.352Z,36.15
2023-02-18T20:28:01.252Z,32.40
2023-02-18T20:30:28.821Z,34.75
2023-02-18T20:32:55.569Z,26.63
2023-02-18T20:35:22.447Z,28.17
2023-02-18T20:37:49.308Z,31.50
2023-02-18T20:40:16.205Z,24.77
2023-02-18T20:42:42.969Z,27.42
2023-02-18T20:45:10.838Z,24.30
2023-02-18T20:47:37.537Z,15.85
2023-02-18T20:50:04.445Z,21.00
2023-02-18T20:52:33.643Z,20.93
2023-02-18T20:55:01.488Z,23.98
2023-02-18T20:57:28.280Z,19.40
2023-02-18T20:59:55.159Z,18.10
2023-02-18T21:02:24.984Z,23.33
2023-02-18T21:04:51.735Z,16.80
2023-02-18T21:07:18.622Z,23.70
2023-02-18T21:09:45.921Z,28.40
2023-02-18T21:12:14.879Z,27.25
2023-02-18T21:14:41.658Z,24.48
2023-02-18T21:17:09.551Z,21.03
2023-02-18T21:19:36.444Z,21.25
2023-02-18T21:22:03.151Z,21.50
2023-02-18T21:24:30.083Z,24.70
2023-02-18T21:26:56.810Z,30.55
2023-02-18T21:29:24.235Z,20.73
2023-02-18T21:31:51.029Z,19.83
2023-02-18T21:34:17.853Z,22.98
2023-02-18T21:36:44.728Z,17.25
2023-02-18T21:39:12.326Z,18.02
2023-02-18T21:41:41.098Z,26.00
2023-02-18T21:55:55.282Z,21.80
2023-02-18T21:58:29.026Z,18.23
2023-02-18T22:00:58.888Z,25.57
2023-02-18T22:03:27.905Z,16.10
2023-02-18T22:05:56.614Z,22.25
2023-02-18T22:08:23.488Z,22.77
2023-02-18T22:10:50.412Z,14.27
2023-02-18T22:13:17.535Z,22.97
2023-02-18T22:15:44.535Z,21.33
2023-02-18T22:18:33.145Z,20.58
2023-02-18T23:32:05.842Z,12.98
2023-02-18T23:45:11.632Z,13.17
2023-02-18T23:47:49.558Z,11.98
2023-02-18T23:50:16.537Z,10.55
2023-02-18T23:52:43.551Z,11.50
2023-02-18T23:55:10.971Z,12.68
2023-02-18T23:57:37.715Z,12.53
